Time;durP1;ratioP1;P1;durP2;ratioP2;P2;SDS_P1;SDS_P2;PMS_P1;PMS_P2;Temp;Humidity;BMP_temperature;BMP_pressure;BME280_temperature;BME280_humidity;BME280_pressure;Samples;Min_cycle;Max_cycle;Signal;HPM_P1;HPM_P2
2024/01/27 00:01:32;;;;;;;26.92;5.28;;;32.70;20.20;;;;;;5052602;28;20087;-75
2024/01/27 00:03:59;;;;;;;27.67;4.80;;;32.40;19.50;;;;;;5052235;28;20098;-75
2024/01/27 00:06:24;;;;;;;18.73;4.82;;;32.50;20.60;;;;;;5051857;28;20044;-75
2024/01/27 00:08:50;;;;;;;18.90;3.42;;;32.70;21.50;;;;;;5052261;28;20132;-75
2024/01/27 00:11:17;;;;;;;18.35;3.42;;;;;;;;;;5052018;28;20037;-75
2024/01/27 00:13:43;;;;;;;22.13;4.97;;;32.40;20.70;;;;;;5052037;28;20048;-75
2024/01/27 00:16:09;;;;;;;25.83;3.25;;;;;;;;;;5051756;28;20041;-75
2024/01/27 00:18:38;;;;;;;21.70;5.35;;;32.70;21.90;;;;;;5051261;28;20051;-75
2024/01/27 00:21:05;;;;;;;15.82;3.22;;;32.20;21.40;;;;;;5051948;28;20052;-75
2024/01/27 00:23:32;;;;;;;19.40;3.80;;;32.60;20.90;;;;;;5035203;28;20524;-75
2024/01/27 00:25:58;;;;;;;26.00;5.20;;;32.50;20.00;;;;;;5051732;28;20041;-75
2024/01/27 00:28:23;;;;;;;17.00;4.22;;;32.20;20.10;;;;;;5034371;28;20120;-75
2024/01/27 00:30:49;;;;;;;21.17;4.25;;;32.70;20.10;;;;;;5051786;28;20513;-75
2024/01/27 00:33:14;;;;;;;18.33;3.67;;;32.20;18.90;;;;;;5051988;28;20052;-75
2024/01/27 00:35:40;;;;;;;28.08;5.30;;;32.40;19.10;;;;;;5051619;28;20072;-75
2024/01/27 00:38:05;;;;;;;31.63;4.85;;;32.30;20.40;;;;;;5034779;28;20566;-73
2024/01/27 00:40:31;;;;;;;16.80;3.25;;;;;;;;;;5051479;28;20438;-73
2024/01/27 00:42:57;;;;;;;20.90;4.43;;;32.50;20.50;;;;;;5051613;28;20041;-73
2024/01/27 00:45:22;;;;;;;24.38;3.92;;;32.20;19.40;;;;;;5051455;28;20131;-73
2024/01/27 00:47:50;;;;;;;14.93;3.30;;;32.50;20.60;;;;;;5034303;28;20048;-73
2024/01/27 00:50:16;;;;;;;22.40;4.25;;;32.00;19.90;;;;;;5034855;28;20040;-73
2024/01/27 00:52:42;;;;;;;23.45;4.93;;;32.40;20.10;;;;;;5034759;28;20626;-73
2024/01/27 00:55:08;;;;;;;14.13;3.75;;;32.20;19.70;;;;;;5034568;28;20045;-73
2024/01/27 00:57:34;;;;;;;17.38;4.53;;;;;;;;;;5050510;28;20037;-73
2024/01/27 00:59:59;;;;;;;21.85;5.25;;;32.40;18.70;;;;;;5051488;28;20098;-73
2024/01/27 01:02:25;;;;;;;24.80;4.45;;;32.10;18.50;;;;;;5051224;28;20115;-73
2024/01/27 01:04:51;;;;;;;22.65;4.15;;;32.50;19.60;;;;;;5051382;28;20063;-73
2024/01/27 01:07:16;;;;;;;30.13;3.53;;;32.50;19.90;;;;;;5050453;28;20094;-73
2024/01/27 01:09:42;;;;;;;23.20;3.55;;;32.20;20.50;;;;;;5034423;28;20040;-73
2024/01/27 01:12:08;;;;;;;27.77;3.67;;;32.50;22.20;;;;;;5034599;28;20076;-73
2024/01/27 01:14:34;;;;;;;21.08;3.78;;;;;;;;;;5034289;28;20466;-73
2024/01/27 01:17:00;;;;;;;16.90;3.47;;;;;;;;;;5050280;28;20041;-73
2024/01/27 01:19:26;;;;;;;21.90;3.53;;;32.60;24.30;;;;;;5050678;28;20043;-73
2024/01/27 01:21:52;;;;;;;24.17;4.18;;;32.70;25.90;;;;;;5050830;28;20045;-73
2024/01/27 01:24:17;;;;;;;21.17;3.35;;;32.40;28.20;;;;;;5051010;28;20420;-72
2024/01/27 01:26:43;;;;;;;17.30;3.25;;;32.40;25.20;;;;;;5050361;28;20540;-73
2024/01/27 01:29:08;;;;;;;21.77;4.53;;;32.10;26.10;;;;;;5050421;28;20404;-73
2024/01/27 01:31:34;;;;;;;18.52;3.10;;;;;;;;;;5050714;28;20080;-73
2024/01/27 01:34:00;;;;;;;22.48;4.00;;;32.50;29.80;;;;;;5050712;28;20493;-73
2024/01/27 01:36:25;;;;;;;23.35;4.07;;;32.60;29.30;;;;;;5033623;28;20075;-73
2024/01/27 01:38:51;;;;;;;16.65;3.80;;;;;;;;;;5033563;28;20037;-73
2024/01/27 01:41:17;;;;;;;23.13;4.07;;;32.50;27.00;;;;;;5050809;28;20093;-73
2024/01/27 01:43:42;;;;;;;23.85;3.60;;;32.60;28.80;;;;;;5050569;28;20397;-72
2024/01/27 01:46:08;;;;;;;23.23;4.57;;;32.80;32.20;;;;;;5050371;28;20076;-73
2024/01/27 01:48:34;;;;;;;20.20;3.63;;;32.30;29.00;;;;;;5033053;28;20048;-73
2024/01/27 01:51:00;;;;;;;19.73;3.13;;;32.90;34.80;;;;;;5050393;28;20519;-72
2024/01/27 01:53:26;;;;;;;21.70;3.75;;;32.40;32.90;;;;;;5050345;28;20047;-73
2024/01/27 01:55:52;;;;;;;23.08;4.35;;;32.30;32.70;;;;;;5050201;28;20424;-73
2024/01/27 01:58:18;;;;;;;26.00;3.70;;;32.60;33.70;;;;;;5049495;28;20043;-73
2024/01/27 02:00:44;;;;;;;18.17;3.10;;;32.10;33.50;;;;;;5050508;28;20037;-73
2024/01/27 02:03:13;;;;;;;24.85;3.90;;;32.10;33.30;;;;;;5050269;28;20134;-73
2024/01/27 02:05:39;;;;;;;25.05;3.50;;;32.30;34.10;;;;;;5033567;28;20072;-73
2024/01/27 02:08:06;;;;;;;14.57;4.03;;;32.50;35.70;;;;;;5049578;28;20050;-73
2024/01/27 02:10:36;;;;;;;19.77;3.03;;;;;;;;;;5050184;28;20044;-73
2024/01/27 02:13:18;;;;;;;22.30;3.67;;;32.70;31.50;;;;;;5050204;28;20084;-73
2024/01/27 02:15:44;;;;;;;15.98;2.90;;;32.30;35.30;;;;;;5033365;28;20048;-73
2024/01/27 02:18:09;;;;;;;16.10;3.67;;;32.10;35.50;;;;;;5049364;28;20041;-73
2024/01/27 02:20:37;;;;;;;16.65;4.68;;;;;;;;;;5050015;28;20583;-73
2024/01/27 02:23:04;;;;;;;16.63;3.63;;;;;;;;;;5050020;28;20047;-72
2024/01/27 02:25:30;;;;;;;28.38;3.95;;;;;;;;;;5050044;28;20048;-74
2024/01/27 02:27:56;;;;;;;19.35;4.80;;;32.20;40.20;;;;;;5049304;28;20504;-73
2024/01/27 02:30:22;;;;;;;18.15;3.05;;;32.40;41.50;;;;;;5049934;28;20045;-73
2024/01/27 02:32:47;;;;;;;21.27;3.58;;;32.50;42.90;;;;;;5049934;28;20064;-73
2024/01/27 02:35:14;;;;;;;24.55;4.13;;;32.60;42.40;;;;;;5049843;28;20040;-73
2024/01/27 02:37:40;;;;;;;19.20;3.22;;;32.30;41.50;;;;;;5049284;28;20403;-73
2024/01/27 02:40:07;;;;;;;17.00;2.75;;;32.20;37.90;;;;;;5050482;28;20037;-73
2024/01/27 02:42:33;;;;;;;18.80;3.55;;;32.20;44.10;;;;;;5053981;28;20507;-73
2024/01/27 02:44:58;;;;;;;27.90;3.03;;;32.00;42.60;;;;;;5053763;28;20045;-73
2024/01/27 02:47:24;;;;;;;23.02;4.57;;;;;;;;;;5052991;28;20037;-73
2024/01/27 02:49:50;;;;;;;22.92;4.05;;;32.50;42.80;;;;;;5036995;28;20059;-72
2024/01/27 02:52:16;;;;;;;19.27;3.47;;;;;;;;;;5053866;28;20067;-72
2024/01/27 02:54:41;;;;;;;22.63;3.67;;;32.30;41.80;;;;;;5053595;28;20048;-73
2024/01/27 02:57:07;;;;;;;18.23;3.97;;;32.20;43.10;;;;;;5052995;28;20041;-73
2024/01/27 02:59:33;;;;;;;27.63;4.30;;;32.20;43.40;;;;;;5053300;28;20068;-73
2024/01/27 03:01:58;;;;;;;19.80;3.30;;;32.60;44.30;;;;;;5053357;28;20041;-72
2024/01/27 03:04:24;;;;;;;23.40;4.38;;;32.10;44.20;;;;;;5053728;28;20458;-73
2024/01/27 03:06:49;;;;;;;26.35;3.78;;;32.20;45.50;;;;;;5052826;28;20060;-73
2024/01/27 03:09:15;;;;;;;23.10;4.18;;;32.40;45.40;;;;;;5053173;28;20412;-73
2024/01/27 03:11:41;;;;;;;18.30;3.78;;;;;;;;;;5036867;28;20041;-73
2024/01/27 03:14:07;;;;;;;15.23;3.65;;;;;;;;;;5053121;28;20126;-73
2024/01/27 03:16:32;;;;;;;20.02;5.15;;;32.40;48.20;;;;;;5052558;28;20064;-72
2024/01/27 03:18:59;;;;;;;19.90;3.60;;;32.60;48.20;;;;;;5036313;28;20041;-73
2024/01/27 03:21:25;;;;;;;21.60;4.07;;;32.20;48.70;;;;;;5036582;28;20141;-73
2024/01/27 03:23:51;;;;;;;32.40;4.13;;;;;;;;;;5036413;28;20072;-73
2024/01/27 03:26:17;;;;;;;17.42;3.25;;;32.50;49.00;;;;;;5052445;28;20564;-73
2024/01/27 03:28:42;;;;;;;19.50;3.75;;;32.10;47.70;;;;;;5052787;28;20049;-73
2024/01/27 03:31:08;;;;;;;19.75;3.80;;;;;;;;;;5052844;28;20382;-72
2024/01/27 03:33:34;;;;;;;23.15;4.10;;;32.60;47.60;;;;;;5052844;28;20044;-72
2024/01/27 03:35:59;;;;;;;15.82;2.85;;;32.50;48.80;;;;;;5052726;28;20485;-72
2024/01/27 03:38:25;;;;;;;31.40;4.68;;;32.40;49.30;;;;;;5051860;28;20048;-73
2024/01/27 03:40:50;;;;;;;27.80;3.53;;;32.60;49.30;;;;;;5036315;28;20040;-73
2024/01/27 03:43:16;;;;;;;21.15;3.30;;;32.00;50.90;;;;;;5052723;28;20048;-72
2024/01/27 03:45:42;;;;;;;20.08;4.65;;;32.50;46.80;;;;;;5036412;28;20067;-73
2024/01/27 03:48:08;;;;;;;22.63;3.65;;;32.80;49.70;;;;;;5051380;28;20041;-73
2024/01/27 03:50:33;;;;;;;20.38;3.20;;;32.30;49.20;;;;;;5035978;28;20088;-73
2024/01/27 03:52:59;;;;;;;23.38;3.63;;;32.30;49.20;;;;;;5052595;28;20508;-73
2024/01/27 03:55:24;;;;;;;18.17;3.90;;;32.20;49.20;;;;;;5052499;28;20045;-72
2024/01/27 03:57:50;;;;;;;17.38;3.67;;;32.40;53.10;;;;;;5035240;28;20032;-73
2024/01/27 04:00:16;;;;;;;21.67;4.18;;;32.00;48.30;;;;;;5036007;28;20048;-73
2024/01/27 04:02:41;;;;;;;21.42;3.95;;;32.50;49.90;;;;;;5052515;28;20503;-73
2024/01/27 04:05:07;;;;;;;19.63;3.38;;;32.30;50.50;;;;;;5052338;28;20049;-73
2024/01/27 04:07:33;;;;;;;14.35;3.17;;;;;;;;;;5051386;28;20493;-72
2024/01/27 04:09:59;;;;;;;11.63;3.25;;;;;;;;;;5052493;28;20040;-73
2024/01/27 04:12:25;;;;;;;23.55;3.58;;;;;;;;;;5052121;28;20079;-72
2024/01/27 04:14:51;;;;;;;13.65;3.30;;;;;;;;;;5035560;28;20037;-72
2024/01/27 04:17:16;;;;;;;22.60;3.00;;;32.30;47.60;;;;;;5035278;28;20095;-72
2024/01/27 04:19:42;;;;;;;26.02;4.18;;;32.50;47.90;;;;;;5035812;28;20501;-72
2024/01/27 04:22:08;;;;;;;18.45;3.95;;;32.60;47.10;;;;;;5052089;28;20562;-72
2024/01/27 04:24:33;;;;;;;16.20;3.28;;;;;;;;;;5052172;28;20083;-72
2024/01/27 04:27:00;;;;;;;23.60;3.60;;;32.00;45.10;;;;;;5034696;28;20041;-73
2024/01/27 04:29:25;;;;;;;21.88;2.90;;;32.10;45.10;;;;;;5051618;28;20037;-72
2024/01/27 04:31:51;;;;;;;19.27;3.50;;;32.10;45.10;;;;;;5051746;28;20404;-72
2024/01/27 04:34:16;;;;;;;18.23;3.10;;;32.00;43.90;;;;;;5051959;28;20045;-72
2024/01/27 04:36:42;;;;;;;24.83;4.53;;;;;;;;;;5051105;28;20084;-72
2024/01/27 04:39:08;;;;;;;18.88;4.47;;;;;;;;;;5051388;28;20044;-72
2024/01/27 04:41:34;;;;;;;19.67;3.00;;;32.40;43.10;;;;;;5051898;28;20040;-72
2024/01/27 04:44:00;;;;;;;16.98;2.88;;;32.60;47.10;;;;;;5051778;28;20059;-72
2024/01/27 04:46:25;;;;;;;22.35;3.90;;;32.60;42.70;;;;;;5034206;28;20460;-72
2024/01/27 04:48:51;;;;;;;20.63;3.60;;;;;;;;;;5051280;28;20511;-72
2024/01/27 04:51:17;;;;;;;19.27;3.47;;;;;;;;;;5051398;28;20570;-72
2024/01/27 04:53:43;;;;;;;20.75;3.42;;;32.30;44.30;;;;;;5051637;28;20124;-72
2024/01/27 04:56:09;;;;;;;19.13;4.07;;;32.10;44.50;;;;;;5034643;28;20052;-72
2024/01/27 04:58:35;;;;;;;24.92;3.70;;;32.40;45.90;;;;;;5033825;28;20040;-72
2024/01/27 05:01:02;;;;;;;15.30;3.42;;;;;;;;;;5051118;28;20041;-72
2024/01/27 05:03:28;;;;;;;21.38;4.32;;;32.40;43.10;;;;;;5050639;28;20044;-72
2024/01/27 05:05:53;;;;;;;15.32;2.63;;;32.50;46.50;;;;;;5051367;28;20048;-72
2024/01/27 05:08:19;;;;;;;21.05;3.45;;;32.20;46.30;;;;;;5050349;28;20076;-72
2024/01/27 05:10:45;;;;;;;31.30;4.03;;;32.10;45.20;;;;;;5034406;28;20037;-72
2024/01/27 05:13:11;;;;;;;22.10;4.88;;;32.40;46.20;;;;;;5051192;28;20456;-72
2024/01/27 05:15:36;;;;;;;22.73;3.70;;;32.10;48.70;;;;;;5050865;28;20037;-72
2024/01/27 05:18:02;;;;;;;21.20;3.03;;;;;;;;;;5050161;28;20041;-72
2024/01/27 05:20:28;;;;;;;15.55;3.38;;;32.40;46.90;;;;;;5051163;28;20041;-72
2024/01/27 05:22:53;;;;;;;27.30;3.47;;;32.30;49.60;;;;;;5051115;28;20044;-73
2024/01/27 05:25:19;;;;;;;19.75;3.22;;;32.40;47.40;;;;;;5034236;28;20045;-73
2024/01/27 05:27:45;;;;;;;19.45;5.20;;;;;;;;;;5051208;28;20477;-72
2024/01/27 05:30:11;;;;;;;14.98;3.38;;;32.70;46.30;;;;;;5050604;28;20047;-72
2024/01/27 05:32:36;;;;;;;19.38;3.60;;;32.10;47.60;;;;;;5050688;28;20511;-73
2024/01/27 05:35:03;;;;;;;16.63;3.05;;;32.20;45.30;;;;;;5050675;28;20037;-73
2024/01/27 05:37:29;;;;;;;19.88;3.25;;;32.50;49.80;;;;;;5049760;28;20072;-73
2024/01/27 05:39:54;;;;;;;22.83;4.45;;;31.80;46.60;;;;;;5033949;28;20068;-73
2024/01/27 05:42:21;;;;;;;27.23;3.60;;;32.00;46.80;;;;;;5050703;28;20098;-73
2024/01/27 05:44:47;;;;;;;22.70;3.50;;;32.40;47.70;;;;;;5050453;28;20044;-72
2024/01/27 05:47:12;;;;;;;19.17;3.97;;;32.30;47.70;;;;;;5033201;28;20127;-72
2024/01/27 05:49:38;;;;;;;21.38;3.92;;;32.60;50.00;;;;;;5050490;28;20076;-73
2024/01/27 05:52:04;;;;;;;24.85;3.80;;;32.00;49.70;;;;;;5050353;28;20037;-72
2024/01/27 05:54:29;;;;;;;15.95;3.85;;;32.40;49.40;;;;;;5050278;28;20448;-73
2024/01/27 05:56:55;;;;;;;18.70;3.70;;;32.60;51.10;;;;;;5049879;28;20037;-73
2024/01/27 05:59:21;;;;;;;21.55;4.13;;;32.00;51.30;;;;;;5050058;28;20037;-73
2024/01/27 06:01:47;;;;;;;19.67;3.50;;;;;;;;;;5050258;28;20033;-72
2024/01/27 06:04:13;;;;;;;19.30;3.40;;;32.40;55.10;;;;;;5050568;28;20132;-72
2024/01/27 06:06:39;;;;;;;24.17;3.30;;;;;;;;;;5049637;28;20119;-72
2024/01/27 06:09:05;;;;;;;21.02;3.53;;;32.60;57.60;;;;;;5050013;28;20058;-73
2024/01/27 06:11:31;;;;;;;24.67;3.65;;;;;;;;;;5033462;28;20045;-73
2024/01/27 06:13:58;;;;;;;24.08;3.80;;;31.80;57.00;;;;;;5050013;28;20045;-72
2024/01/27 06:16:24;;;;;;;19.77;4.13;;;32.60;66.50;;;;;;5052642;28;20407;-73
2024/01/27 06:18:49;;;;;;;14.23;3.65;;;32.50;68.40;;;;;;5054139;28;20033;-73
2024/01/27 06:21:15;;;;;;;25.90;4.88;;;31.70;65.30;;;;;;5054390;28;20041;-73
2024/01/27 06:23:41;;;;;;;19.35;3.53;;;;;;;;;;5054362;28;20033;-73
2024/01/27 06:26:07;;;;;;;25.45;4.53;;;;;;;;;;5054378;28;20134;-73
2024/01/27 06:28:34;;;;;;;22.98;3.38;;;32.40;65.00;;;;;;5053387;28;20080;-73
2024/01/27 06:31:00;;;;;;;24.65;4.90;;;;;;;;;;5037756;28;20401;-73
2024/01/27 06:33:25;;;;;;;16.42;4.10;;;31.90;63.40;;;;;;5054281;28;20127;-73
2024/01/27 06:35:51;;;;;;;21.30;4.15;;;32.20;69.10;;;;;;5053910;28;20069;-73
2024/01/27 06:38:17;;;;;;;23.88;3.88;;;32.00;69.00;;;;;;5053608;28;20439;-73
2024/01/27 06:40:42;;;;;;;22.55;3.50;;;32.50;72.50;;;;;;5053735;28;20065;-72
2024/01/27 06:43:10;;;;;;;16.48;4.22;;;32.60;71.00;;;;;;5053867;28;20091;-71
2024/01/27 06:45:36;;;;;;;17.52;3.97;;;31.90;72.30;;;;;;5053824;28;20037;-73
2024/01/27 06:48:01;;;;;;;28.63;4.63;;;31.90;68.80;;;;;;5053026;28;20052;-73
2024/01/27 06:50:27;;;;;;;24.73;4.25;;;32.40;72.20;;;;;;5053980;28;20530;-73
2024/01/27 06:52:53;;;;;;;20.08;4.00;;;;;;;;;;5053668;28;20041;-72
2024/01/27 06:55:18;;;;;;;19.33;3.70;;;32.20;75.00;;;;;;5053450;28;20048;-72
2024/01/27 06:57:44;;;;;;;21.08;4.18;;;;;;;;;;5036152;28;20041;-73
2024/01/27 07:00:14;;;;;;;28.15;5.22;;;32.50;73.70;;;;;;5053479;28;20033;-73
2024/01/27 07:02:41;;;;;;;18.15;4.28;;;;;;;;;;5053469;28;20041;-72
2024/01/27 07:05:07;;;;;;;26.75;3.80;;;31.90;71.80;;;;;;5053387;28;20142;-73
2024/01/27 07:07:33;;;;;;;23.05;3.95;;;32.60;73.70;;;;;;5052791;28;20045;-71
2024/01/27 07:09:59;;;;;;;23.05;3.80;;;32.50;75.00;;;;;;5036828;28;20175;-72
2024/01/27 07:12:25;;;;;;;22.75;4.32;;;32.30;73.10;;;;;;5036667;28;20045;-72
2024/01/27 07:14:57;;;;;;;21.90;4.50;;;32.40;74.20;;;;;;5036580;28;20501;-72
2024/01/27 07:17:23;;;;;;;20.35;4.40;;;;;;;;;;5052544;28;20608;-72
2024/01/27 07:19:49;;;;;;;29.15;4.70;;;;;;;;;;5053037;28;20124;-73
2024/01/27 07:22:14;;;;;;;21.13;3.95;;;31.80;74.10;;;;;;5036489;28;20045;-72
2024/01/27 07:24:41;;;;;;;26.33;5.35;;;;;;;;;;5053171;28;20039;-72
2024/01/27 07:27:06;;;;;;;21.27;4.38;;;32.60;72.50;;;;;;5051900;28;20052;-72
2024/01/27 07:29:32;;;;;;;19.55;4.18;;;;;;;;;;5052783;28;20417;-71
2024/01/27 07:31:58;;;;;;;17.38;3.40;;;32.30;78.00;;;;;;5036529;28;20047;-73
2024/01/27 07:34:24;;;;;;;17.13;3.63;;;;;;;;;;5036257;28;20041;-73
2024/01/27 07:36:49;;;;;;;24.30;4.28;;;32.00;78.40;;;;;;5052199;28;20043;-72
2024/01/27 07:39:15;;;;;;;27.13;4.35;;;32.30;78.90;;;;;;5052634;28;20033;-73
2024/01/27 07:41:42;;;;;;;15.95;4.05;;;32.20;73.90;;;;;;5053002;28;20072;-74
2024/01/27 07:44:12;;;;;;;17.15;4.20;;;;;;;;;;5036114;28;20033;-75
2024/01/27 07:46:38;;;;;;;25.45;5.00;;;;;;;;;;5052127;28;20098;-72
2024/01/27 07:49:05;;;;;;;19.40;5.70;;;31.70;78.30;;;;;;5052401;28;20041;-73
2024/01/27 07:51:31;;;;;;;18.23;4.80;;;;;;;;;;5052821;28;20404;-72
2024/01/27 07:53:57;;;;;;;18.00;5.65;;;;;;;;;;5035777;28;20033;-72
2024/01/27 07:56:23;;;;;;;24.20;5.15;;;;;;;;;;5035277;28;20068;-73
2024/01/27 07:58:49;;;;;;;25.95;5.15;;;;;;;;;;5052277;28;20044;-73
2024/01/27 08:01:15;;;;;;;23.35;5.18;;;;;;;;;;5052702;28;20401;-72
2024/01/27 08:03:41;;;;;;;19.20;4.95;;;31.70;76.00;;;;;;5035719;28;20040;-73
2024/01/27 08:06:09;;;;;;;27.02;6.40;;;;;;;;;;5052268;28;20564;-72
2024/01/27 08:08:36;;;;;;;24.05;5.03;;;;;;;;;;5051430;28;20134;-73
2024/01/27 08:11:01;;;;;;;25.73;5.20;;;;;;;;;;5052242;28;20041;-72
2024/01/27 08:13:27;;;;;;;24.15;4.60;;;32.40;80.40;;;;;;5052289;28;20037;-73
2024/01/27 08:15:53;;;;;;;26.98;6.03;;;;;;;;;;5052207;28;20037;-73
2024/01/27 08:18:19;;;;;;;14.65;4.70;;;;;;;;;;5051214;28;20040;-72
2024/01/27 08:20:45;;;;;;;22.58;5.18;;;32.20;79.40;;;;;;5051956;28;20122;-72
2024/01/27 08:23:11;;;;;;;26.20;5.80;;;32.60;80.80;;;;;;5051948;28;20079;-71
2024/01/27 08:25:36;;;;;;;21.55;5.07;;;32.60;81.00;;;;;;5052038;28;20099;-72
2024/01/27 08:28:03;;;;;;;17.95;4.82;;;32.20;80.60;;;;;;5051346;28;20475;-73
2024/01/27 08:30:28;;;;;;;26.25;4.65;;;32.50;79.50;;;;;;5051834;28;20103;-74
2024/01/27 08:32:54;;;;;;;19.15;4.47;;;32.30;80.70;;;;;;5051789;28;20492;-72
2024/01/27 08:35:19;;;;;;;18.85;4.82;;;32.30;80.80;;;;;;5051666;28;20416;-72
2024/01/27 08:37:45;;;;;;;19.20;4.70;;;;;;;;;;5049917;28;20069;-72
2024/01/27 08:40:12;;;;;;;19.73;5.20;;;32.40;81.30;;;;;;5051747;28;20037;-72
2024/01/27 08:42:37;;;;;;;22.77;4.82;;;32.20;81.90;;;;;;5051972;28;20036;-72
2024/01/27 08:45:03;;;;;;;22.38;5.80;;;32.70;84.70;;;;;;5051582;28;20037;-73
2024/01/27 08:47:28;;;;;;;17.65;4.60;;;31.90;87.00;;;;;;5034282;28;20459;-73
2024/01/27 08:49:54;;;;;;;26.52;5.18;;;32.00;84.20;;;;;;5051193;28;20040;-73
2024/01/27 08:52:20;;;;;;;20.92;5.45;;;32.30;87.20;;;;;;5051317;28;20048;-72
2024/01/27 08:54:45;;;;;;;31.65;5.90;;;32.60;89.00;;;;;;5034716;28;20386;-73
2024/01/27 08:57:11;;;;;;;29.20;6.88;;;32.40;89.20;;;;;;5050733;28;20087;-72
2024/01/27 08:59:36;;;;;;;22.60;6.07;;;32.30;89.70;;;;;;5034818;28;20043;-72
2024/01/27 09:02:02;;;;;;;24.92;6.53;;;31.80;88.80;;;;;;5051456;28;20044;-72
2024/01/27 09:04:28;;;;;;;24.10;5.78;;;31.80;89.30;;;;;;5051222;28;20089;-73
2024/01/27 09:06:53;;;;;;;25.70;6.97;;;32.60;90.80;;;;;;5050404;28;20079;-72
2024/01/27 09:09:19;;;;;;;35.38;7.43;;;32.20;90.80;;;;;;5050902;28;20041;-73
2024/01/27 09:11:45;;;;;;;34.28;7.35;;;32.00;90.00;;;;;;5051025;28;20469;-73
2024/01/27 09:14:11;;;;;;;28.27;8.50;;;32.60;90.30;;;;;;5050895;28;20052;-73
2024/01/27 09:16:37;;;;;;;21.10;6.15;;;32.40;88.00;;;;;;5050664;28;20770;-72
2024/01/27 09:19:02;;;;;;;25.95;6.60;;;32.10;87.50;;;;;;5050712;28;20037;-73
2024/01/27 09:21:30;;;;;;;23.20;7.10;;;32.00;85.30;;;;;;5034136;28;20041;-73
2024/01/27 09:23:56;;;;;;;26.60;5.80;;;32.50;84.70;;;;;;5034266;28;20072;-73
2024/01/27 09:26:22;;;;;;;28.17;7.70;;;32.60;82.40;;;;;;5033604;28;20079;-72
2024/01/27 09:28:54;;;;;;;28.38;6.72;;;32.10;79.90;;;;;;5050684;28;20094;-72
2024/01/27 09:31:21;;;;;;;21.58;5.97;;;32.70;78.50;;;;;;5034218;28;20051;-73
2024/01/27 09:33:52;;;;;;;27.25;6.28;;;32.10;76.20;;;;;;5033993;28;20043;-73
2024/01/27 09:36:18;;;;;;;25.63;8.13;;;;;;;;;;5050003;28;20037;-72
2024/01/27 09:38:43;;;;;;;21.52;6.10;;;32.80;73.50;;;;;;5050356;28;20045;-73
2024/01/27 09:41:12;;;;;;;26.75;6.95;;;32.30;70.60;;;;;;5033987;28;20039;-73
2024/01/27 09:43:42;;;;;;;24.13;5.45;;;32.80;69.50;;;;;;5050581;28;20132;-73
2024/01/27 09:46:08;;;;;;;20.77;5.60;;;32.20;65.20;;;;;;5050487;28;20049;-73
2024/01/27 09:48:35;;;;;;;28.23;5.65;;;32.80;65.30;;;;;;5049622;28;20041;-72
2024/01/27 09:51:03;;;;;;;22.23;5.40;;;32.30;60.70;;;;;;5050291;28;20099;-73
2024/01/27 09:53:28;;;;;;;19.98;5.72;;;32.30;59.50;;;;;;5050395;28;20037;-73
2024/01/27 09:55:58;;;;;;;20.45;5.60;;;32.80;59.10;;;;;;5050389;28;20448;-73
2024/01/27 09:58:27;;;;;;;35.92;5.93;;;32.70;56.00;;;;;;5049516;28;20036;-73
2024/01/27 10:00:55;;;;;;;22.05;5.25;;;32.30;55.10;;;;;;5050211;28;20033;-73
2024/01/27 10:03:24;;;;;;;16.48;4.65;;;32.90;52.30;;;;;;5033641;28;20040;-73
2024/01/27 10:05:51;;;;;;;23.92;6.18;;;32.70;50.80;;;;;;5050240;28;20080;-72
2024/01/27 10:08:17;;;;;;;26.55;5.93;;;32.90;47.60;;;;;;5049461;28;20523;-73
2024/01/27 10:10:43;;;;;;;19.17;5.18;;;;;;;;;;5050226;28;20041;-73
2024/01/27 10:13:10;;;;;;;24.50;4.78;;;;;;;;;;5050145;28;20560;-73
2024/01/27 10:15:36;;;;;;;25.98;5.18;;;32.50;39.20;;;;;;5050053;28;20045;-73
2024/01/27 10:18:08;;;;;;;23.75;5.35;;;32.50;40.90;;;;;;5049471;28;20507;-73
2024/01/27 10:20:34;;;;;;;20.25;6.03;;;33.00;39.30;;;;;;5050055;28;20040;-73
2024/01/27 10:23:11;;;;;;;23.33;4.95;;;32.70;35.50;;;;;;5050100;28;20049;-73
2024/01/27 10:25:40;;;;;;;23.98;5.57;;;32.30;34.40;;;;;;5050109;28;20045;-73
2024/01/27 10:28:08;;;;;;;21.67;5.05;;;33.10;33.90;;;;;;5049429;28;20428;-73
2024/01/27 10:30:34;;;;;;;22.02;5.03;;;32.50;31.90;;;;;;5050286;28;20408;-73
2024/01/27 10:32:59;;;;;;;27.50;4.65;;;32.60;32.50;;;;;;5049943;28;20033;-73
2024/01/27 10:35:26;;;;;;;17.63;4.70;;;32.50;31.60;;;;;;5049808;28;20036;-73
2024/01/27 10:37:53;;;;;;;20.95;4.68;;;;;;;;;;5049043;28;20068;-73
2024/01/27 10:40:19;;;;;;;26.13;5.00;;;33.10;31.40;;;;;;5050198;28;20410;-73
2024/01/27 10:42:45;;;;;;;25.58;5.25;;;32.70;31.00;;;;;;5050137;28;20072;-73
2024/01/27 10:45:12;;;;;;;21.17;4.90;;;32.90;29.30;;;;;;5033246;28;20044;-73
2024/01/27 10:47:39;;;;;;;16.17;5.15;;;32.80;31.70;;;;;;5049285;28;20037;-72
2024/01/27 10:50:08;;;;;;;21.70;4.93;;;32.70;26.20;;;;;;5049872;28;20037;-73
2024/01/27 10:52:39;;;;;;;22.60;5.03;;;32.60;26.00;;;;;;5049822;28;20131;-73
2024/01/27 10:55:08;;;;;;;27.08;6.22;;;33.00;26.60;;;;;;5049663;28;20040;-73
2024/01/27 10:57:34;;;;;;;19.42;4.30;;;32.70;28.10;;;;;;5049058;28;20500;-71
2024/01/27 11:00:03;;;;;;;18.33;4.45;;;32.60;26.00;;;;;;5049863;28;20141;-73
2024/01/27 11:02:33;;;;;;;19.98;4.75;;;32.90;25.10;;;;;;5035994;28;20032;-73
2024/01/27 11:05:01;;;;;;;21.33;5.53;;;32.70;25.20;;;;;;5053672;28;20412;-73
2024/01/27 11:07:27;;;;;;;22.33;5.20;;;32.80;24.90;;;;;;5052657;28;20037;-73
2024/01/27 11:09:53;;;;;;;26.23;4.90;;;32.80;22.00;;;;;;5053312;28;20037;-73
2024/01/27 11:12:21;;;;;;;23.52;5.82;;;33.00;23.30;;;;;;5053337;28;20044;-73
2024/01/27 11:14:47;;;;;;;20.17;4.55;;;32.70;21.80;;;;;;5036608;28;20041;-73
2024/01/27 11:17:13;;;;;;;23.00;5.32;;;32.90;23.00;;;;;;5052880;28;20090;-72
2024/01/27 11:19:42;;;;;;;29.90;5.22;;;32.70;20.80;;;;;;5036361;28;20563;-73
2024/01/27 11:22:07;;;;;;;17.27;5.13;;;33.20;20.20;;;;;;5053274;28;20146;-73
2024/01/27 11:24:33;;;;;;;27.30;5.45;;;33.10;20.00;;;;;;5053170;28;20520;-72
2024/01/27 11:27:02;;;;;;;25.90;6.10;;;33.10;20.40;;;;;;5052483;28;20147;-72
2024/01/27 11:29:29;;;;;;;18.08;5.18;;;33.00;21.30;;;;;;5052836;28;20062;-73
2024/01/27 11:31:56;;;;;;;21.75;5.45;;;33.20;21.60;;;;;;5053002;28;20048;-73
2024/01/27 11:34:21;;;;;;;21.55;4.75;;;33.30;21.70;;;;;;5053041;28;20160;-73
2024/01/27 11:36:47;;;;;;;18.20;5.07;;;33.20;20.90;;;;;;5035798;28;20083;-75
2024/01/27 11:39:30;;;;;;;23.27;4.90;;;33.30;21.20;;;;;;5052823;28;20043;-73
2024/01/27 11:42:15;;;;;;;23.15;5.10;;;33.10;18.90;;;;;;5036152;28;20055;-72
2024/01/27 11:44:42;;;;;;;26.42;6.07;;;33.20;20.70;;;;;;5036487;28;20501;-74
2024/01/27 11:47:18;;;;;;;22.27;5.18;;;33.00;21.50;;;;;;5052217;28;20048;-73
2024/01/27 11:49:54;;;;;;;20.00;4.50;;;33.00;19.40;;;;;;5052764;28;20064;-73
2024/01/27 11:52:20;;;;;;;23.00;5.40;;;33.30;18.70;;;;;;5052680;28;20578;-73
2024/01/27 11:54:46;;;;;;;23.02;4.68;;;33.00;17.60;;;;;;5035907;28;20527;-73
2024/01/27 11:57:11;;;;;;;29.35;5.95;;;33.20;18.70;;;;;;5051942;28;20084;-74
2024/01/27 11:59:37;;;;;;;26.35;6.38;;;33.20;18.00;;;;;;5052138;28;20037;-73
2024/01/27 12:02:03;;;;;;;23.58;5.80;;;33.10;18.70;;;;;;5035984;28;20080;-73
2024/01/27 12:04:30;;;;;;;21.90;5.75;;;;;;;;;;5052358;28;20052;-73
2024/01/27 12:06:58;;;;;;;18.80;5.18;;;;;;;;;;5051767;28;20044;-74
2024/01/27 12:09:24;;;;;;;26.75;5.47;;;;;;;;;;5052192;28;20508;-74
2024/01/27 12:11:54;;;;;;;19.77;4.28;;;;;;;;;;5052249;28;20084;-73
2024/01/27 12:14:22;;;;;;;20.90;5.18;;;;;;;;;;5052084;28;20423;-73
2024/01/27 12:16:48;;;;;;;31.02;5.65;;;;;;;;;;5034888;28;20650;-73
2024/01/27 12:19:14;;;;;;;21.25;4.70;;;;;;;;;;5052007;28;20066;-73
2024/01/27 12:21:47;;;;;;;21.05;5.20;;;;;;;;;;5051995;28;20037;-73
2024/01/27 12:24:18;;;;;;;21.70;4.93;;;;;;;;;;5052070;28;20040;-74
2024/01/27 12:26:45;;;;;;;21.23;5.00;;;;;;;;;;5051287;28;20095;-73
2024/01/27 12:29:11;;;;;;;16.95;4.07;;;;;;;;;;5035423;28;20045;-74
2024/01/27 12:31:37;;;;;;;24.17;4.70;;;;;;;;;;5051811;28;20033;-74
2024/01/27 12:34:03;;;;;;;30.10;5.85;;;;;;;;;;5052023;28;20500;-73
2024/01/27 12:36:29;;;;;;;18.88;4.03;;;;;;;;;;5051155;28;20037;-73
2024/01/27 12:38:56;;;;;;;29.77;6.10;;;;;;;;;;5051928;28;20525;-76
2024/01/27 12:41:22;;;;;;;21.42;4.57;;;;;;;;;;5051594;28;20124;-75
2024/01/27 12:43:49;;;;;;;18.27;5.03;;;;;;;;;;5051930;28;20136;-76
2024/01/27 12:46:16;;;;;;;23.40;4.97;;;;;;;;;;5050997;28;20045;-76
2024/01/27 12:48:42;;;;;;;29.45;5.63;;;;;;;;;;5051334;28;20056;-76
2024/01/27 12:51:09;;;;;;;21.42;4.60;;;;;;;;;;5051506;28;20049;-75
2024/01/27 12:53:35;;;;;;;19.80;4.40;;;;;;;;;;5051468;28;20051;-75
2024/01/27 12:56:01;;;;;;;23.73;5.13;;;;;;;;;;5034675;28;20491;-75
2024/01/27 12:58:27;;;;;;;23.00;5.78;;;;;;;;;;5033961;28;20040;-75
2024/01/27 13:00:53;;;;;;;22.45;5.65;;;;;;;;;;5051266;28;20525;-76